Etusivu
METAR-TAF:

METAR-TAF

Lentoasemat :

Kirkkoniemi, Norja

Leveyspiiri: 69-44N, Pituuspiiri: 029-54E, korkeus merenpinnasta: 9 m

Tämänhetkinen sää

Tämä raportti tehtiin 24 minuuttia sitten, kello 13.50 UTC
Tuuli 12 kn lännestä/luoteesta
Lämpötila -4°C
Kosteus 68%
Ilmanpaine 1014 hPa
Näkyvyys 10 km tai enemmän
Hajanaisia pilviä 2800 ft:n korkeudessa

METAR: ENKR 301350Z 30012KT 9999 SCT028 M04/M09 Q1014 RMK WIND 731FT 29019KT

Aika: 16:14 (14:14 UTC)

Sääennuste

Tämä raportti tehtiin 3 tuntia ja 14 minuuttia sitten, kello 11.00 UTC
Ennuste voimassa 30. päivästä klo 12 UTC - 30. päivään klo 21 UTC
Tuuli 12 kn lännestä
Näkyvyys 10 km tai enemmän
Muutamia pilviä 1000 ft:n korkeudessa
Hajanaisia pilviä 3000 ft:n korkeudessa

TAF: ENKR 301100Z 3012/3021 27012KT 9999 FEW010 SCT030

Säähavainnot ja -ennusteet yli 4000 lentoasemalta (METAR- ja TAF-raportit).

Käytössä olevat sääasemat on merkitty karttaan keltaisilla ja punaisilla pisteillä.

Aseta hiiri pisteen päälle nähdäksesi sääaseman nimen.

Klikkaa sitten nähdäksesi säähavainnot ja -ennusteet.

Kartan vaihtaminen: klikkaa mustalla rastilla varustettuja vihreitä pisteitä, niin voit zoomata sisään; viivalla varustettua vihreää pistettä, niin voit zoomata ulos tai vihreitä nuolia, niin pääset viereisille kartoille.


METAR-TAF: